Terminal Aerodrome Forecast
Issued by NWS Omaha/Valley, NE

Home | Current Version | Previous Version | Graphics & Text | Print | Product List | Glossary On
Versions: 1 2 3 4 5 6 7 8 9 10 11 12 13 14 15 16 17 18 19 20 21 22
000
FTUS43 KOAX 230909 AAC
TAFOFK
TAF AMD
KOFK 230909Z 2309/2406 VRB04KT 3/4SM BR BKN003
      TEMPO 2309/2313 1/4SM FG VV001
     FM231500 22005KT 4SM HZ SCT015
     FM231800 21009KT P6SM SCT025 SCT100=

USA.gov is the U.S. government's official web portal to all federal, state and local government web resources and services.